createdAt,value
2022-12-17T00:04:30.480Z,21.5
2022-12-17T00:09:55.161Z,21.4
2022-12-17T00:15:39.479Z,21.4
2022-12-17T00:21:03.395Z,21.4
2022-12-17T00:26:34.113Z,21.4
2022-12-17T00:32:13.652Z,21.4
2022-12-17T00:37:52.282Z,21.4
2022-12-17T00:43:33.553Z,21.3
2022-12-17T00:48:41.537Z,21.3
2022-12-17T00:54:06.511Z,21.3
2022-12-17T00:59:47.675Z,21.3
2022-12-17T01:04:59.808Z,21.3
2022-12-17T01:10:37.672Z,21.3
2022-12-17T01:16:06.347Z,21.3
2022-12-17T01:21:31.330Z,21.2
2022-12-17T01:27:13.661Z,21.2
2022-12-17T01:32:58.385Z,21.2
2022-12-17T01:38:36.421Z,21.2
2022-12-17T01:44:14.599Z,21.2
2022-12-17T01:49:52.981Z,21.2
2022-12-17T02:22:07.902Z,21.1
2022-12-17T02:27:30.443Z,21.1
2022-12-17T02:33:08.209Z,21.1
2022-12-17T02:38:48.091Z,21.1
2022-12-17T02:44:27.197Z,21
2022-12-17T02:50:04.774Z,21
2022-12-17T02:55:26.863Z,21
2022-12-17T03:00:51.925Z,21
2022-12-17T03:07:05.868Z,21
2022-12-17T03:12:44.489Z,20.9
2022-12-17T03:18:23.402Z,21
2022-12-17T03:24:01.347Z,20.9
2022-12-17T03:29:40.008Z,20.9
2022-12-17T03:35:08.062Z,20.9
2022-12-17T03:40:44.901Z,20.9
2022-12-17T03:46:22.736Z,20.9
2022-12-17T03:51:43.990Z,20.9
2022-12-17T03:57:21.010Z,20.9
2022-12-17T04:03:00.793Z,20.9
2022-12-17T04:08:45.202Z,20.9
2022-12-17T04:14:28.271Z,20.9
2022-12-17T04:20:06.737Z,20.9
2022-12-17T04:25:28.445Z,20.9
2022-12-17T04:31:05.108Z,20.9
2022-12-17T04:36:49.623Z,20.8
2022-12-17T04:42:27.424Z,20.8
2022-12-17T04:48:05.201Z,20.8
2022-12-17T04:53:27.940Z,20.8
2022-12-17T04:59:05.606Z,20.8
2022-12-17T05:04:44.995Z,20.8
2022-12-17T05:10:07.661Z,20.8
2022-12-17T05:15:49.856Z,20.8
2022-12-17T05:21:33.254Z,20.8
2022-12-17T05:27:13.651Z,20.8
2022-12-17T05:32:57.284Z,20.8
2022-12-17T05:38:35.093Z,20.8
2022-12-17T05:44:13.492Z,20.8
2022-12-17T05:49:51.491Z,20.8
2022-12-17T05:55:17.953Z,20.8
2022-12-17T06:01:01.836Z,20.8
2022-12-17T06:06:25.546Z,20.8
2022-12-17T06:12:03.217Z,20.8
2022-12-17T06:17:26.568Z,20.8
2022-12-17T06:22:50.315Z,20.8
2022-12-17T06:28:28.243Z,20.8
2022-12-17T06:34:06.922Z,20.8
2022-12-17T06:39:47.535Z,20.8
2022-12-17T06:45:30.026Z,20.7
2022-12-17T06:51:09.044Z,20.7
2022-12-17T06:56:47.189Z,20.7
2022-12-17T07:02:30.060Z,20.7
2022-12-17T07:08:08.893Z,20.6
2022-12-17T07:13:55.352Z,20.6
2022-12-17T07:19:32.184Z,20.6
2022-12-17T07:24:54.874Z,20.6
2022-12-17T07:30:18.397Z,20.6
2022-12-17T07:36:01.176Z,20.5
2022-12-17T07:41:39.728Z,20.5
2022-12-17T07:47:18.791Z,20.5
2022-12-17T07:52:55.384Z,20.5
2022-12-17T07:58:22.762Z,20.5
2022-12-17T08:04:03.016Z,20.4
2022-12-17T08:09:44.903Z,20.4
2022-12-17T08:15:13.620Z,20.4
2022-12-17T08:20:28.821Z,20.4
2022-12-17T08:26:07.712Z,20.4
2022-12-17T08:32:28.152Z,20.4
2022-12-17T08:38:06.772Z,20.4
2022-12-17T08:43:49.524Z,20.4
2022-12-17T08:49:29.797Z,20.4
2022-12-17T08:55:07.452Z,20.4
2022-12-17T09:00:45.393Z,20.4
2022-12-17T09:06:26.568Z,20.4
2022-12-17T09:12:04.189Z,20.4
2022-12-17T09:17:42.077Z,20.4
2022-12-17T09:23:20.977Z,20.3
2022-12-17T09:29:04.662Z,20.4
2022-12-17T09:34:46.812Z,20.3
2022-12-17T09:40:31.360Z,20.3
2022-12-17T09:45:58.836Z,20.3
2022-12-17T09:51:25.524Z,20.3
2022-12-17T09:56:48.723Z,20.3
2022-12-17T10:02:27.528Z,20.3
2022-12-17T10:08:09.011Z,20.3
2022-12-17T10:13:52.888Z,20.3
2022-12-17T10:19:31.346Z,20.3
2022-12-17T10:25:13.066Z,20.3
2022-12-17T10:30:55.648Z,20.3
2022-12-17T10:36:17.631Z,20.3
2022-12-17T10:41:54.995Z,20.3
2022-12-17T10:47:39.864Z,20.2
2022-12-17T10:53:22.271Z,20.3
2022-12-17T10:59:05.248Z,20.3
2022-12-17T11:04:35.979Z,20.2
2022-12-17T11:10:25.925Z,20.2
2022-12-17T11:16:12.869Z,20.2
2022-12-17T11:21:53.187Z,20.2
2022-12-17T11:27:31.154Z,20.2
2022-12-17T11:33:08.511Z,20.2
2022-12-17T11:38:56.914Z,20.2
2022-12-17T11:44:34.888Z,20.2
2022-12-17T11:49:45.348Z,20.2
2022-12-17T11:55:30.193Z,20.2
2022-12-17T12:01:15.983Z,20.2
2022-12-17T12:07:01.843Z,20.2
2022-12-17T12:12:39.887Z,20.2
2022-12-17T12:18:18.261Z,20.1
2022-12-17T12:23:58.374Z,20.1
2022-12-17T12:29:42.341Z,20.1
2022-12-17T12:35:25.886Z,20.1
2022-12-17T12:41:04.098Z,20.1
2022-12-17T12:46:42.308Z,20.1
2022-12-17T12:52:23.909Z,20.1
2022-12-17T12:58:06.887Z,20.1
2022-12-17T13:03:51.549Z,20.1
2022-12-17T13:09:13.986Z,20.1
2022-12-17T13:15:00.172Z,20.1
2022-12-17T13:20:39.729Z,20.1
2022-12-17T13:26:23.197Z,20.1
2022-12-17T13:32:07.686Z,20.1
2022-12-17T13:37:32.247Z,20.1
2022-12-17T13:43:11.862Z,20.1
2022-12-17T13:48:49.059Z,20.1
2022-12-17T13:55:04.726Z,20.1
2022-12-17T14:00:44.952Z,20.1
2022-12-17T14:06:55.658Z,20.1
2022-12-17T14:12:33.275Z,20.1
2022-12-17T14:18:14.412Z,20.1
2022-12-17T14:23:40.283Z,20.1
2022-12-17T14:29:23.211Z,20.1
2022-12-17T14:35:49.717Z,20.1
2022-12-17T14:41:48.875Z,20.1
2022-12-17T14:47:30.675Z,20.1
2022-12-17T14:53:08.877Z,20.1
2022-12-17T14:58:46.913Z,20.1
2022-12-17T15:04:31.784Z,20.1
2022-12-17T15:09:53.997Z,20
2022-12-17T15:15:19.962Z,20
2022-12-17T15:21:03.435Z,20
2022-12-17T15:26:18.616Z,20
2022-12-17T15:31:45.039Z,20
2022-12-17T15:37:25.774Z,20
2022-12-17T15:43:06.277Z,20
2022-12-17T15:48:49.743Z,20
2022-12-17T15:54:29.627Z,20
2022-12-17T16:00:09.544Z,20
2022-12-17T16:05:24.919Z,20
2022-12-17T16:11:08.711Z,20
2022-12-17T16:16:20.472Z,20
2022-12-17T16:22:03.192Z,20
2022-12-17T16:27:26.476Z,19.9
2022-12-17T16:33:09.128Z,19.9
2022-12-17T16:38:49.678Z,19.9
2022-12-17T16:44:32.386Z,19.9
2022-12-17T16:50:11.710Z,20
2022-12-17T16:55:57.604Z,20
2022-12-17T17:01:25.521Z,20
2022-12-17T17:07:09.008Z,20
2022-12-17T17:12:46.993Z,19.9
2022-12-17T17:18:45.292Z,19.9
2022-12-17T17:24:24.676Z,19.9
2022-12-17T17:30:22.648Z,19.9
2022-12-17T17:36:41.185Z,19.9
2022-12-17T17:42:20.201Z,20
2022-12-17T17:47:58.966Z,19.9
2022-12-17T17:54:18.068Z,19.9
2022-12-17T18:00:02.353Z,19.9
2022-12-17T18:05:42.261Z,19.9
2022-12-17T18:11:55.859Z,19.9
2022-12-17T18:17:48.362Z,19.9
2022-12-17T18:23:28.866Z,19.9
2022-12-17T18:29:07.530Z,19.9
2022-12-17T18:34:30.503Z,19.9
2022-12-17T18:40:07.896Z,19.8
2022-12-17T18:45:51.853Z,19.8
2022-12-17T18:51:35.716Z,19.8
2022-12-17T18:57:50.169Z,19.9
2022-12-17T19:03:30.177Z,20
2022-12-17T19:09:13.083Z,20.1
2022-12-17T19:14:52.507Z,20.1
2022-12-17T19:20:31.488Z,20.1
2022-12-17T19:26:09.204Z,20.2
2022-12-17T19:31:35.295Z,20.2
2022-12-17T19:37:18.043Z,20.2
2022-12-17T19:42:56.113Z,20.3
2022-12-17T19:48:34.353Z,20.2
2022-12-17T19:54:22.977Z,20.3
2022-12-17T20:00:01.014Z,20.3
2022-12-17T20:05:41.629Z,20.3
2022-12-17T20:11:20.196Z,20.3
2022-12-17T20:17:02.958Z,20.3
2022-12-17T20:22:40.633Z,20.3
2022-12-17T20:28:02.740Z,20.3
2022-12-17T20:33:29.690Z,20.4
2022-12-17T20:38:52.906Z,20.4
2022-12-17T20:44:33.188Z,20.5
2022-12-17T20:49:59.779Z,20.6
2022-12-17T20:55:42.954Z,20.7
2022-12-17T21:01:22.564Z,20.8
2022-12-17T21:07:02.541Z,20.9
2022-12-17T21:12:31.426Z,20.9
2022-12-17T21:17:45.971Z,21
2022-12-17T21:23:34.110Z,21.1
2022-12-17T21:38:40.208Z,21.2
2022-12-17T21:44:20.864Z,21.2
2022-12-17T21:50:06.512Z,21.2
2022-12-17T21:55:45.778Z,21.3
2022-12-17T22:01:09.269Z,21.3
2022-12-17T22:07:35.056Z,21.3
2022-12-17T22:14:24.701Z,21.3
2022-12-17T22:20:00.380Z,21.3
2022-12-17T22:25:28.354Z,21.3
2022-12-17T22:30:51.412Z,21.3
2022-12-17T22:46:54.959Z,20.9
2022-12-17T22:53:08.843Z,20.7
2022-12-17T22:59:54.746Z,20.6
2022-12-17T23:05:40.386Z,20.6
2022-12-17T23:11:18.553Z,20.4
2022-12-17T23:16:56.713Z,20.4
2022-12-17T23:22:22.082Z,20.3
2022-12-17T23:27:59.425Z,20.3
2022-12-17T23:33:37.820Z,20.2
2022-12-17T23:39:03.909Z,20.1
2022-12-17T23:44:42.960Z,20.1
2022-12-17T23:50:25.517Z,20
2022-12-17T23:56:04.261Z,20
